createdAt,value
2018-07-26T00:01:45.495Z,86.65
2018-07-26T00:02:45.424Z,86.85
2018-07-26T00:04:38.196Z,87.67
2018-07-26T00:05:38.114Z,87.58
2018-07-26T00:07:30.889Z,88.06
2018-07-26T00:08:30.799Z,88.15
2018-07-26T00:10:23.794Z,87.38
2018-07-26T00:11:23.731Z,87.48
2018-07-26T00:13:16.740Z,88.25
2018-07-26T00:14:16.658Z,87.87
2018-07-26T00:16:09.430Z,88.54
2018-07-26T00:17:09.353Z,88.25
2018-07-26T00:19:02.362Z,88.73
2018-07-26T00:20:02.283Z,88.83
2018-07-26T00:21:55.043Z,90.19
2018-07-26T00:22:54.972Z,89.70
2018-07-26T00:24:47.975Z,90.09
2018-07-26T00:25:47.899Z,90.37
2018-07-26T00:27:40.726Z,91.25
2018-07-26T00:28:40.580Z,90.67
2018-07-26T00:30:33.352Z,91.05
2018-07-26T00:31:33.290Z,90.19
2018-07-26T00:33:26.313Z,90.86
2018-07-26T00:34:26.214Z,91.83
2018-07-26T00:36:19.216Z,91.68
2018-07-26T00:37:19.146Z,92.26
2018-07-26T00:39:12.038Z,92.94
2018-07-26T00:40:11.956Z,92.74
2018-07-26T00:42:04.729Z,92.94
2018-07-26T00:43:04.656Z,93.13
2018-07-26T00:44:57.428Z,92.55
2018-07-26T00:45:57.343Z,93.80
2018-07-26T00:47:50.430Z,94.48
2018-07-26T00:48:50.414Z,93.62
2018-07-26T00:50:43.124Z,94.29
2018-07-26T00:51:43.046Z,94.29
2018-07-26T00:53:35.822Z,94.48
2018-07-26T00:54:35.745Z,94.87
2018-07-26T00:56:28.743Z,95.35
2018-07-26T00:57:28.668Z,94.77
2018-07-26T00:59:21.683Z,95.21
2018-07-26T01:00:21.606Z,96.17
2018-07-26T01:02:14.607Z,96.41
2018-07-26T01:03:14.539Z,96.46
2018-07-26T01:05:07.568Z,97.04
2018-07-26T01:06:07.491Z,96.56
2018-07-26T01:08:00.326Z,98.10
2018-07-26T01:09:00.240Z,98.00
2018-07-26T01:10:53.251Z,97.14
2018-07-26T01:11:53.167Z,97.72
2018-07-26T01:13:46.209Z,97.62
2018-07-26T01:14:46.123Z,97.52
2018-07-26T01:16:38.900Z,96.66
2018-07-26T01:17:38.829Z,96.36
2018-07-26T01:19:31.606Z,97.62
2018-07-26T01:20:31.526Z,97.04
2018-07-26T01:22:24.285Z,96.99
2018-07-26T01:23:24.216Z,97.09
2018-07-26T01:25:17.235Z,96.99
2018-07-26T01:26:17.138Z,97.28
2018-07-26T01:28:09.912Z,96.70
2018-07-26T01:29:09.827Z,96.32
2018-07-26T01:31:02.606Z,96.12
2018-07-26T01:32:02.525Z,96.22
2018-07-26T01:33:55.538Z,95.45
2018-07-26T01:34:55.458Z,95.54
2018-07-26T01:36:48.225Z,96.32
2018-07-26T01:37:48.151Z,96.22
2018-07-26T01:39:40.970Z,96.70
2018-07-26T01:40:40.844Z,96.80
2018-07-26T01:42:33.600Z,97.47
2018-07-26T01:43:33.527Z,96.80
2018-07-26T01:45:26.554Z,96.70
2018-07-26T01:46:26.470Z,95.93
2018-07-26T01:48:19.485Z,94.87
2018-07-26T01:49:19.394Z,94.29
2018-07-26T01:51:12.400Z,94.10
2018-07-26T01:52:12.318Z,94.96
2018-07-26T01:54:05.094Z,95.36
2018-07-26T01:55:05.020Z,96.12
2018-07-26T01:56:57.767Z,94.78
2018-07-26T01:57:57.697Z,93.43
2018-07-26T01:59:50.719Z,95.45
2018-07-26T02:00:50.640Z,96.12
2018-07-26T02:02:43.965Z,97.57
2018-07-26T02:03:43.903Z,96.70
2018-07-26T02:05:36.669Z,94.29
2018-07-26T02:06:36.592Z,94.87
2018-07-26T02:08:29.355Z,94.39
2018-07-26T02:09:29.274Z,94.48
2018-07-26T02:11:22.274Z,92.80
2018-07-26T02:12:22.200Z,93.13
2018-07-26T02:14:15.223Z,92.80
2018-07-26T02:15:15.130Z,92.27
2018-07-26T02:17:07.909Z,92.75
2018-07-26T02:18:07.828Z,92.85
2018-07-26T02:20:00.830Z,92.50
2018-07-26T02:21:00.750Z,92.75
2018-07-26T02:22:53.527Z,92.89
2018-07-26T02:23:53.445Z,92.75
2018-07-26T02:25:46.230Z,92.70
2018-07-26T02:26:46.134Z,93.52
2018-07-26T02:28:38.914Z,93.81
2018-07-26T02:29:38.836Z,92.94
2018-07-26T02:31:31.613Z,94.29
2018-07-26T02:32:31.532Z,93.33
2018-07-26T02:34:24.552Z,93.43
2018-07-26T02:35:24.470Z,93.43
2018-07-26T02:37:17.293Z,92.56
2018-07-26T02:38:17.238Z,91.93
2018-07-26T02:40:09.992Z,92.89
2018-07-26T02:41:09.919Z,91.98
2018-07-26T02:43:02.918Z,93.13
2018-07-26T02:44:02.842Z,93.57
2018-07-26T02:45:55.875Z,92.75
2018-07-26T02:46:55.782Z,92.56
2018-07-26T02:48:48.555Z,93.23
2018-07-26T02:49:48.474Z,93.23
2018-07-26T02:51:41.236Z,93.81
2018-07-26T02:52:41.164Z,93.52
2018-07-26T02:54:33.934Z,93.43
2018-07-26T02:55:33.862Z,94.48
2018-07-26T02:57:26.614Z,94.48
2018-07-26T02:58:26.543Z,95.64
2018-07-26T03:00:19.574Z,95.26
2018-07-26T03:01:19.487Z,95.36
2018-07-26T03:03:12.518Z,95.45
2018-07-26T03:04:12.422Z,95.74
2018-07-26T03:06:05.441Z,96.22
2018-07-26T03:07:05.347Z,95.54
2018-07-26T03:08:58.343Z,96.03
2018-07-26T03:09:58.262Z,96.12
2018-07-26T03:11:51.044Z,96.22
2018-07-26T03:12:50.968Z,95.64
2018-07-26T03:14:43.736Z,95.06
2018-07-26T03:15:43.652Z,94.68
2018-07-26T03:17:36.412Z,95.26
2018-07-26T03:18:36.342Z,96.12
2018-07-26T03:20:29.305Z,95.54
2018-07-26T03:21:29.224Z,95.36
2018-07-26T03:23:22.056Z,95.79
2018-07-26T03:24:21.993Z,95.40
2018-07-26T03:26:14.999Z,96.46
2018-07-26T03:27:14.911Z,97.24
2018-07-26T03:29:07.698Z,96.56
2018-07-26T03:30:07.605Z,96.94
2018-07-26T03:32:00.602Z,97.04
2018-07-26T03:33:00.533Z,96.85
2018-07-26T03:34:53.304Z,97.33
2018-07-26T03:35:53.246Z,97.52
2018-07-26T03:37:45.981Z,97.42
2018-07-26T03:38:45.910Z,97.42
2018-07-26T03:40:38.678Z,98.20
2018-07-26T03:41:38.599Z,98.68
2018-07-26T03:43:31.434Z,98.87
2018-07-26T03:44:31.284Z,98.00
2018-07-26T03:46:24.315Z,98.97
2018-07-26T03:47:24.236Z,98.68
2018-07-26T03:49:17.275Z,99.07
2018-07-26T03:50:17.169Z,99.07
2018-07-26T03:52:09.952Z,99.26
2018-07-26T03:53:09.870Z,99.35
2018-07-26T03:55:02.648Z,98.20
2018-07-26T03:56:02.563Z,98.87
2018-07-26T03:57:55.588Z,98.39
2018-07-26T03:58:55.508Z,98.68
2018-07-26T04:00:48.274Z,97.91
2018-07-26T04:01:48.191Z,98.00
2018-07-26T04:03:40.948Z,97.62
2018-07-26T04:04:40.874Z,98.00
2018-07-26T04:06:33.641Z,97.42
2018-07-26T04:07:33.558Z,99.74
2018-07-26T04:09:26.590Z,98.10
2018-07-26T04:10:26.494Z,98.87
2018-07-26T04:12:19.536Z,97.62
2018-07-26T04:13:19.453Z,97.42
2018-07-26T04:15:12.248Z,99.26
2018-07-26T04:16:12.150Z,98.20
2018-07-26T04:18:05.188Z,97.42
2018-07-26T04:19:05.095Z,97.52
2018-07-26T04:20:57.862Z,97.33
2018-07-26T04:21:57.779Z,97.72
2018-07-26T04:23:50.775Z,97.04
2018-07-26T04:24:50.697Z,97.62
2018-07-26T04:26:43.462Z,97.42
2018-07-26T04:27:43.380Z,98.68
2018-07-26T04:29:36.140Z,97.42
2018-07-26T04:30:36.069Z,97.72
2018-07-26T04:32:28.839Z,98.39
2018-07-26T04:33:28.757Z,97.81
2018-07-26T04:35:21.759Z,97.81
2018-07-26T04:36:21.684Z,98.10
2018-07-26T04:38:14.448Z,97.62
2018-07-26T04:39:14.369Z,97.81
2018-07-26T04:41:07.139Z,98.77
2018-07-26T04:42:07.061Z,99.16
2018-07-26T04:44:00.382Z,99.74
2018-07-26T04:45:00.306Z,98.97
2018-07-26T04:46:53.061Z,98.00
2018-07-26T04:47:52.988Z,98.20
2018-07-26T04:49:45.744Z,97.33
2018-07-26T04:50:45.677Z,96.56
2018-07-26T04:52:38.447Z,96.08
2018-07-26T04:53:38.358Z,95.98
2018-07-26T04:55:31.161Z,95.69
2018-07-26T04:56:31.062Z,94.82
2018-07-26T04:58:24.071Z,93.66
2018-07-26T04:59:23.998Z,93.48
2018-07-26T05:01:17.048Z,93.52
2018-07-26T05:02:16.969Z,93.91
2018-07-26T05:04:09.967Z,93.43
2018-07-26T05:05:09.898Z,93.81
2018-07-26T05:07:02.876Z,92.75
2018-07-26T05:08:02.885Z,92.75
2018-07-26T05:09:55.552Z,92.75
2018-07-26T05:10:55.482Z,92.08
2018-07-26T05:12:48.570Z,91.69
2018-07-26T05:13:48.480Z,91.93
2018-07-26T05:15:41.268Z,92.80
2018-07-26T05:16:41.177Z,92.75
2018-07-26T05:18:34.039Z,92.70
2018-07-26T05:19:33.865Z,90.48
2018-07-26T05:21:26.915Z,90.00
2018-07-26T05:22:26.828Z,90.00
2018-07-26T05:24:19.853Z,87.97
2018-07-26T05:25:19.767Z,88.36
2018-07-26T05:27:12.768Z,87.53
2018-07-26T05:28:12.690Z,87.53
2018-07-26T05:30:05.701Z,87.44
2018-07-26T05:31:05.623Z,87.63
2018-07-26T05:32:58.411Z,87.73
2018-07-26T05:33:58.320Z,87.53
2018-07-26T05:35:51.092Z,86.66
2018-07-26T05:36:51.019Z,85.12
2018-07-26T05:38:44.277Z,85.99
2018-07-26T05:39:44.207Z,86.28
2018-07-26T05:41:36.983Z,85.99
2018-07-26T05:42:36.895Z,85.60
2018-07-26T05:44:29.657Z,84.74
2018-07-26T05:45:29.594Z,84.39
2018-07-26T05:47:22.609Z,83.81
2018-07-26T05:48:22.529Z,82.84
2018-07-26T05:50:15.312Z,83.04
2018-07-26T05:51:15.245Z,82.46
2018-07-26T05:53:08.008Z,82.56
2018-07-26T05:54:07.930Z,81.59
2018-07-26T05:56:00.949Z,81.40
2018-07-26T05:57:00.872Z,80.66
2018-07-26T05:58:53.626Z,80.57
2018-07-26T05:59:53.554Z,79.99
2018-07-26T06:01:46.567Z,80.03
2018-07-26T06:02:46.532Z,79.06
2018-07-26T06:04:39.253Z,78.58
2018-07-26T06:05:39.176Z,77.80
2018-07-26T06:07:31.958Z,77.17
2018-07-26T06:08:31.886Z,76.01
2018-07-26T06:09:31.838Z,76.06
2018-07-26T06:10:31.740Z,76.49
2018-07-26T06:11:31.671Z,76.39
2018-07-26T06:12:31.601Z,75.43
2018-07-26T06:13:31.532Z,76.20
2018-07-26T06:14:31.464Z,75.95
2018-07-26T06:15:31.402Z,74.88
2018-07-26T06:16:31.327Z,75.17
2018-07-26T06:17:31.278Z,74.40
2018-07-26T06:18:31.193Z,74.49
2018-07-26T06:19:31.132Z,75.46
2018-07-26T06:20:31.075Z,74.69
2018-07-26T06:21:30.992Z,74.40
2018-07-26T06:22:30.932Z,73.82
2018-07-26T06:23:30.859Z,74.24
2018-07-26T06:24:30.802Z,72.98
2018-07-26T06:25:30.721Z,72.89
2018-07-26T06:26:30.655Z,72.60
2018-07-26T06:27:30.588Z,73.08
2018-07-26T06:28:30.526Z,73.18
2018-07-26T06:29:30.452Z,72.34
2018-07-26T06:30:30.394Z,72.24
2018-07-26T06:31:30.313Z,72.15
2018-07-26T06:32:30.252Z,72.34
2018-07-26T06:33:30.220Z,70.89
2018-07-26T06:34:30.112Z,70.60
2018-07-26T06:35:30.043Z,70.31
2018-07-26T06:36:29.984Z,70.31
2018-07-26T06:37:29.927Z,70.05
2018-07-26T06:38:29.857Z,69.85
2018-07-26T06:39:29.784Z,70.63
2018-07-26T06:40:29.715Z,70.73
2018-07-26T06:41:29.662Z,69.08
2018-07-26T06:42:29.588Z,69.37
2018-07-26T06:43:29.514Z,69.18
2018-07-26T06:44:29.456Z,69.27
2018-07-26T06:45:29.374Z,68.82
2018-07-26T06:46:29.320Z,68.60
2018-07-26T06:47:29.252Z,69.02
2018-07-26T06:48:29.182Z,69.12
2018-07-26T06:49:29.144Z,68.34
2018-07-26T06:50:29.045Z,68.54
2018-07-26T06:51:28.995Z,68.54
2018-07-26T06:52:28.916Z,68.63
2018-07-26T06:53:28.852Z,68.05
2018-07-26T06:54:28.784Z,67.08
2018-07-26T06:55:28.719Z,67.31
2018-07-26T06:56:28.656Z,66.34
2018-07-26T06:57:28.583Z,65.37
2018-07-26T06:58:28.525Z,65.56
2018-07-26T06:59:28.446Z,65.08
2018-07-26T07:00:28.398Z,65.47
2018-07-26T07:01:28.321Z,66.24
2018-07-26T07:02:28.252Z,65.08
2018-07-26T07:03:28.185Z,65.37
2018-07-26T07:04:28.119Z,65.37
2018-07-26T07:05:28.052Z,65.20
2018-07-26T07:06:27.987Z,64.72
2018-07-26T07:07:27.927Z,65.59
2018-07-26T07:08:27.860Z,65.40
2018-07-26T07:09:27.788Z,65.59
2018-07-26T07:10:27.724Z,65.43
2018-07-26T07:11:27.657Z,64.17
2018-07-26T07:12:27.598Z,63.88
2018-07-26T07:13:27.518Z,63.68
2018-07-26T07:14:27.457Z,62.71
2018-07-26T07:15:27.392Z,62.62
2018-07-26T07:16:27.325Z,61.94
2018-07-26T07:17:27.264Z,62.23
2018-07-26T07:18:27.193Z,61.68
2018-07-26T07:19:27.137Z,61.38
2018-07-26T07:20:27.105Z,60.90
2018-07-26T07:21:27.000Z,59.57
2018-07-26T07:22:26.930Z,58.40
2018-07-26T07:23:26.866Z,59.38
2018-07-26T07:24:26.816Z,58.79
2018-07-26T07:25:26.736Z,58.01
2018-07-26T07:26:26.693Z,57.82
2018-07-26T07:27:26.609Z,57.92
2018-07-26T07:28:26.540Z,58.31
2018-07-26T07:29:26.472Z,59.08
2018-07-26T07:30:26.405Z,58.79
2018-07-26T07:31:26.342Z,58.23
2018-07-26T07:32:26.276Z,58.04
2018-07-26T07:33:26.222Z,57.85
2018-07-26T07:34:26.149Z,58.14
2018-07-26T07:35:26.117Z,58.14
2018-07-26T07:36:26.034Z,57.95
2018-07-26T07:37:25.952Z,57.75
2018-07-26T07:38:25.883Z,57.56
2018-07-26T07:39:25.820Z,57.29
2018-07-26T07:40:25.752Z,57.20
2018-07-26T07:41:25.744Z,57.10
2018-07-26T07:42:25.620Z,57.10
2018-07-26T07:43:25.556Z,56.51
2018-07-26T07:44:25.491Z,57.20
2018-07-26T07:45:25.434Z,57.20
2018-07-26T07:46:25.361Z,56.51
2018-07-26T07:47:25.357Z,57.49
2018-07-26T07:48:25.232Z,56.61
2018-07-26T07:49:25.167Z,57.10
2018-07-26T07:50:25.101Z,55.96
2018-07-26T07:51:25.037Z,57.03
2018-07-26T07:52:24.971Z,56.64
2018-07-26T07:53:24.910Z,55.86
2018-07-26T07:54:24.836Z,55.86
2018-07-26T07:55:24.783Z,55.86
2018-07-26T07:56:24.711Z,55.86
2018-07-26T07:57:24.673Z,55.96
2018-07-26T07:58:24.581Z,56.15
2018-07-26T07:59:24.535Z,55.79
2018-07-26T08:00:24.449Z,55.99
2018-07-26T08:01:24.383Z,55.79
2018-07-26T08:02:24.326Z,55.11
2018-07-26T08:03:24.275Z,55.30
2018-07-26T08:04:24.203Z,53.75
2018-07-26T08:05:24.201Z,54.52
2018-07-26T08:06:24.066Z,53.94
2018-07-26T08:07:23.998Z,53.67
2018-07-26T08:08:23.936Z,53.97
2018-07-26T08:09:23.871Z,54.26
2018-07-26T08:10:23.817Z,54.65
2018-07-26T08:11:23.733Z,55.23
2018-07-26T08:12:23.675Z,53.87
2018-07-26T08:13:23.611Z,54.16
2018-07-26T08:14:23.546Z,53.50
2018-07-26T08:15:23.487Z,53.99
2018-07-26T08:16:23.420Z,53.80
2018-07-26T08:17:23.362Z,53.21
2018-07-26T08:18:23.328Z,52.73
2018-07-26T08:19:23.223Z,53.14
2018-07-26T08:20:23.161Z,53.34
2018-07-26T08:21:23.191Z,52.85
2018-07-26T08:22:23.032Z,52.85
2018-07-26T08:23:22.967Z,53.34
2018-07-26T08:24:22.905Z,52.36
2018-07-26T08:25:22.839Z,52.95
2018-07-26T08:26:22.777Z,52.26
2018-07-26T08:27:22.717Z,52.09
2018-07-26T08:28:22.649Z,51.21
2018-07-26T08:29:22.642Z,52.00
2018-07-26T08:30:22.523Z,51.31
2018-07-26T08:31:22.462Z,51.21
2018-07-26T08:32:22.393Z,51.21
2018-07-26T08:33:22.330Z,51.51
2018-07-26T08:34:22.263Z,51.63
2018-07-26T08:35:22.202Z,51.53
2018-07-26T08:36:22.139Z,51.24
2018-07-26T08:37:22.080Z,50.85
2018-07-26T08:38:22.013Z,51.24
2018-07-26T08:39:21.952Z,51.07
2018-07-26T08:40:21.902Z,50.98
2018-07-26T08:41:21.818Z,51.17
2018-07-26T08:42:21.760Z,49.90
2018-07-26T08:43:21.694Z,47.56
2018-07-26T08:44:21.653Z,48.93
2018-07-26T08:45:21.572Z,48.93
2018-07-26T08:46:21.511Z,49.63
2018-07-26T08:47:21.448Z,48.46
2018-07-26T08:48:21.386Z,47.67
2018-07-26T08:49:21.318Z,47.48
2018-07-26T08:50:21.254Z,46.99
2018-07-26T08:51:21.199Z,47.67
2018-07-26T08:52:21.135Z,47.60
2018-07-26T08:53:21.070Z,46.92
2018-07-26T08:54:21.087Z,47.28
2018-07-26T08:55:20.941Z,47.21
2018-07-26T08:56:20.879Z,47.21
2018-07-26T08:57:20.817Z,47.11
2018-07-26T08:58:20.753Z,47.50
2018-07-26T08:59:20.691Z,47.11
2018-07-26T09:00:20.629Z,47.02
2018-07-26T09:01:20.567Z,46.75
2018-07-26T09:02:20.513Z,47.21
2018-07-26T09:03:20.442Z,46.53
2018-07-26T09:04:20.404Z,45.47
2018-07-26T09:05:20.328Z,45.76
2018-07-26T09:06:20.267Z,44.79
2018-07-26T09:07:20.195Z,45.08
2018-07-26T09:08:20.133Z,44.13
2018-07-26T09:09:20.067Z,44.42
2018-07-26T09:10:20.027Z,43.84
2018-07-26T09:11:19.949Z,43.44
2018-07-26T09:12:19.888Z,43.07
2018-07-26T09:13:19.828Z,43.66
2018-07-26T09:14:19.766Z,42.80
2018-07-26T09:15:19.705Z,41.70
2018-07-26T09:16:19.657Z,42.68
2018-07-26T09:17:19.657Z,42.50
2018-07-26T09:18:19.527Z,42.50
2018-07-26T09:19:19.489Z,42.13
2018-07-26T09:20:19.408Z,41.64
2018-07-26T09:21:19.346Z,41.05
2018-07-26T09:22:19.300Z,41.08
2018-07-26T09:23:19.235Z,40.90
2018-07-26T09:24:19.186Z,39.86
2018-07-26T09:25:19.111Z,38.72
2018-07-26T09:26:19.108Z,37.34
2018-07-26T09:27:18.985Z,37.36
2018-07-26T09:28:18.922Z,36.11
2018-07-26T09:29:18.868Z,34.64
2018-07-26T09:30:18.810Z,34.82
2018-07-26T09:31:18.752Z,35.21
2018-07-26T09:32:18.700Z,35.23
2018-07-26T09:33:18.689Z,33.79
2018-07-26T09:34:18.578Z,33.70
2018-07-26T09:35:18.563Z,33.15
2018-07-26T09:36:18.466Z,31.88
2018-07-26T09:37:18.407Z,31.67
2018-07-26T09:38:18.351Z,31.57
2018-07-26T09:39:18.297Z,31.29
2018-07-26T09:40:18.241Z,30.69
2018-07-26T09:41:18.188Z,30.60
2018-07-26T09:42:18.134Z,30.09
2018-07-26T09:43:18.077Z,30.10
2018-07-26T09:44:18.023Z,29.83
2018-07-26T09:45:17.967Z,28.58
2018-07-26T09:46:17.913Z,27.72
2018-07-26T09:47:17.885Z,27.63
2018-07-26T09:48:17.834Z,27.02
2018-07-26T09:49:17.754Z,26.90
2018-07-26T09:50:17.710Z,27.32
2018-07-26T09:51:17.648Z,27.34
2018-07-26T09:52:17.593Z,25.79
2018-07-26T09:53:17.547Z,25.26
2018-07-26T09:54:17.493Z,25.66
2018-07-26T09:55:17.440Z,25.09
2018-07-26T09:56:17.387Z,24.99
2018-07-26T09:57:17.330Z,25.77
2018-07-26T09:58:17.279Z,25.60
2018-07-26T09:59:17.231Z,24.62
2018-07-26T10:00:17.227Z,24.90
2018-07-26T10:01:17.136Z,25.74
2018-07-26T10:02:17.076Z,26.32
2018-07-26T10:03:17.022Z,25.92
2018-07-26T10:04:16.973Z,26.82
2018-07-26T10:05:16.922Z,25.66
2018-07-26T10:06:16.870Z,25.00
2018-07-26T10:07:16.821Z,24.42
2018-07-26T10:08:16.768Z,24.32
2018-07-26T10:09:16.717Z,24.04
2018-07-26T10:10:16.668Z,23.66
2018-07-26T10:11:16.616Z,22.66
2018-07-26T10:12:16.588Z,22.66
2018-07-26T10:13:16.516Z,23.43
2018-07-26T10:14:16.467Z,24.72
2018-07-26T10:15:16.415Z,24.34
2018-07-26T10:16:16.361Z,23.13
2018-07-26T10:17:16.318Z,24.69
2018-07-26T10:18:16.268Z,23.54
2018-07-26T10:19:16.218Z,24.88
2018-07-26T10:20:16.185Z,25.49
2018-07-26T10:21:16.117Z,24.96
2018-07-26T10:22:16.074Z,24.68
2018-07-26T10:23:16.018Z,24.95
2018-07-26T10:24:15.975Z,25.42
2018-07-26T10:25:15.926Z,25.79
2018-07-26T10:26:15.868Z,25.74
2018-07-26T10:27:15.823Z,24.87
2018-07-26T10:28:15.769Z,24.69
2018-07-26T10:29:15.721Z,23.43
2018-07-26T10:30:15.671Z,22.26
2018-07-26T10:31:15.626Z,21.77
2018-07-26T10:32:15.599Z,21.97
2018-07-26T10:33:15.520Z,22.44
2018-07-26T10:34:15.470Z,22.34
2018-07-26T10:35:15.425Z,22.03
2018-07-26T10:36:15.385Z,22.84
2018-07-26T10:37:15.332Z,24.29
2018-07-26T10:38:15.274Z,24.30
2018-07-26T10:39:15.221Z,23.39
2018-07-26T10:40:15.180Z,23.96
2018-07-26T10:41:15.115Z,24.16
2018-07-26T10:42:15.069Z,24.56
2018-07-26T10:43:15.022Z,23.29
2018-07-26T10:44:14.962Z,23.29
2018-07-26T10:45:14.930Z,23.69
2018-07-26T10:46:14.868Z,23.66
2018-07-26T10:47:14.810Z,24.44
2018-07-26T10:48:14.756Z,25.04
2018-07-26T10:49:14.706Z,25.14
2018-07-26T10:50:14.653Z,25.91
2018-07-26T10:51:14.599Z,25.43
2018-07-26T10:52:14.542Z,24.62
2018-07-26T10:53:14.492Z,25.29
2018-07-26T10:54:14.438Z,26.84
2018-07-26T10:55:14.392Z,27.75
2018-07-26T10:56:14.342Z,27.53
2018-07-26T10:57:14.271Z,28.31
2018-07-26T10:58:14.216Z,28.50
2018-07-26T10:59:14.234Z,28.48
2018-07-26T11:00:14.108Z,29.16
2018-07-26T11:01:14.045Z,29.35
2018-07-26T11:02:14.067Z,28.86
2018-07-26T11:03:13.931Z,28.97
2018-07-26T11:04:13.877Z,28.50
2018-07-26T11:05:13.817Z,28.47
2018-07-26T11:06:13.763Z,29.63
2018-07-26T11:07:13.708Z,29.35
2018-07-26T11:08:13.650Z,29.27
2018-07-26T11:09:13.590Z,29.17
2018-07-26T11:10:13.536Z,28.50
2018-07-26T11:11:13.474Z,28.40
2018-07-26T11:12:13.420Z,28.59
2018-07-26T11:13:13.362Z,27.91
2018-07-26T11:14:13.319Z,28.59
2018-07-26T11:15:13.254Z,28.69
2018-07-26T11:16:13.191Z,27.91
2018-07-26T11:17:13.158Z,28.40
2018-07-26T11:18:13.074Z,28.09
2018-07-26T11:19:13.016Z,28.66
2018-07-26T11:20:12.957Z,28.38
2018-07-26T11:21:12.899Z,28.30
2018-07-26T11:22:12.840Z,28.58
2018-07-26T11:23:12.781Z,28.00
2018-07-26T11:24:12.729Z,28.21
2018-07-26T11:25:12.661Z,28.21
2018-07-26T11:26:12.605Z,28.41
2018-07-26T11:27:12.549Z,27.52
2018-07-26T11:28:12.491Z,27.62
2018-07-26T11:29:12.436Z,27.82
2018-07-26T11:30:12.429Z,27.03
2018-07-26T11:31:12.316Z,27.14
2018-07-26T11:32:12.258Z,27.04
2018-07-26T11:33:12.213Z,27.53
2018-07-26T11:34:12.145Z,27.64
2018-07-26T11:35:12.083Z,27.42
2018-07-26T11:36:12.025Z,28.00
2018-07-26T11:37:11.976Z,28.59
2018-07-26T11:38:11.908Z,28.40
2018-07-26T11:39:11.845Z,28.40
2018-07-26T11:40:11.794Z,28.40
2018-07-26T11:41:11.735Z,27.82
2018-07-26T11:42:11.671Z,28.61
2018-07-26T11:43:11.617Z,28.51
2018-07-26T11:44:11.572Z,28.51
2018-07-26T11:45:11.501Z,28.31
2018-07-26T11:46:11.458Z,28.61
2018-07-26T11:47:11.385Z,28.20
2018-07-26T11:48:11.331Z,28.40
2018-07-26T11:49:11.268Z,28.38
2018-07-26T11:50:11.217Z,28.47
2018-07-26T11:51:11.151Z,28.77
2018-07-26T11:52:11.091Z,28.56
2018-07-26T11:53:11.037Z,29.06
2018-07-26T11:54:10.973Z,29.37
2018-07-26T11:55:10.924Z,28.19
2018-07-26T11:56:10.859Z,28.47
2018-07-26T11:57:10.799Z,28.75
2018-07-26T11:58:10.738Z,29.14
2018-07-26T11:59:10.692Z,29.93
2018-07-26T12:00:10.626Z,29.14
2018-07-26T12:01:10.563Z,29.06
2018-07-26T12:02:10.503Z,29.27
2018-07-26T12:03:10.448Z,29.35
2018-07-26T12:04:10.408Z,29.55
2018-07-26T12:05:10.338Z,29.25
2018-07-26T12:06:10.266Z,29.35
2018-07-26T12:07:10.209Z,29.17
2018-07-26T12:08:10.202Z,29.09
2018-07-26T12:09:10.096Z,28.61
2018-07-26T12:10:10.038Z,28.61
2018-07-26T12:11:09.974Z,28.61
2018-07-26T12:12:09.911Z,27.72
2018-07-26T12:13:09.858Z,28.41
2018-07-26T12:14:09.796Z,28.51
2018-07-26T12:15:09.736Z,27.82
2018-07-26T12:16:09.684Z,28.23
2018-07-26T12:17:09.624Z,27.73
2018-07-26T12:18:09.563Z,27.92
2018-07-26T12:19:09.507Z,28.23
2018-07-26T12:20:09.452Z,28.40
2018-07-26T12:21:09.394Z,28.69
2018-07-26T12:22:09.332Z,29.96
2018-07-26T12:23:09.285Z,30.35
2018-07-26T12:24:09.218Z,30.24
2018-07-26T12:25:09.154Z,30.32
2018-07-26T12:26:09.097Z,30.13
2018-07-26T12:27:09.107Z,29.44
2018-07-26T12:28:08.981Z,29.44
2018-07-26T12:29:08.923Z,29.35
2018-07-26T12:30:08.864Z,29.46
2018-07-26T12:31:08.805Z,29.16
2018-07-26T12:32:08.751Z,29.46
2018-07-26T12:33:08.687Z,28.56
2018-07-26T12:34:08.651Z,29.25
2018-07-26T12:35:08.579Z,28.86
2018-07-26T12:36:08.512Z,28.77
2018-07-26T12:37:08.453Z,29.24
2018-07-26T12:38:08.395Z,29.14
2018-07-26T12:39:08.336Z,29.93
2018-07-26T12:40:08.277Z,29.25
2018-07-26T12:41:08.313Z,28.96
2018-07-26T12:42:08.167Z,29.55
2018-07-26T12:43:08.108Z,30.15
2018-07-26T12:44:08.054Z,29.46
2018-07-26T12:45:07.982Z,28.96
2018-07-26T12:46:07.923Z,29.16
2018-07-26T12:47:07.862Z,30.04
2018-07-26T12:48:07.813Z,29.63
2018-07-26T12:49:07.755Z,30.11
2018-07-26T12:50:07.685Z,29.93
2018-07-26T12:51:07.646Z,29.44
2018-07-26T12:52:07.580Z,30.49
2018-07-26T12:53:07.555Z,30.59
2018-07-26T12:54:07.452Z,30.59
2018-07-26T12:55:07.385Z,30.69
2018-07-26T12:56:07.336Z,31.09
2018-07-26T12:57:07.280Z,30.00
2018-07-26T12:58:07.213Z,30.10
2018-07-26T12:59:07.157Z,30.21
2018-07-26T13:00:07.099Z,28.42
2018-07-26T13:01:07.035Z,28.63
2018-07-26T13:02:06.976Z,28.34
2018-07-26T13:03:06.930Z,28.44
2018-07-26T13:04:06.858Z,28.24
2018-07-26T13:05:06.799Z,27.95
2018-07-26T13:06:06.741Z,27.66
2018-07-26T13:07:06.739Z,28.34
2018-07-26T13:08:06.616Z,27.56
2018-07-26T13:09:06.563Z,28.36
2018-07-26T13:10:06.504Z,27.15
2018-07-26T13:11:06.441Z,27.54
2018-07-26T13:12:06.383Z,28.13
2018-07-26T13:13:06.330Z,27.44
2018-07-26T13:14:06.266Z,28.63
2018-07-26T13:15:06.205Z,28.63
2018-07-26T13:16:06.142Z,28.92
2018-07-26T13:17:06.092Z,29.41
2018-07-26T13:18:06.024Z,29.43
2018-07-26T13:19:05.963Z,28.83
2018-07-26T13:20:05.922Z,29.33
2018-07-26T13:21:05.846Z,30.21
2018-07-26T13:22:05.787Z,29.92
2018-07-26T13:23:05.727Z,30.31
2018-07-26T13:24:05.669Z,29.72
2018-07-26T13:25:05.608Z,29.62
2018-07-26T13:26:05.547Z,29.52
2018-07-26T13:27:05.501Z,29.80
2018-07-26T13:28:05.440Z,30.19
2018-07-26T13:29:05.372Z,29.31
2018-07-26T13:30:05.311Z,29.72
2018-07-26T13:31:05.250Z,29.31
2018-07-26T13:32:05.192Z,29.80
2018-07-26T13:33:05.130Z,29.80
2018-07-26T13:34:05.080Z,29.90
2018-07-26T13:35:05.013Z,30.30
2018-07-26T13:36:04.957Z,31.67
2018-07-26T13:37:04.900Z,29.51
2018-07-26T13:38:04.834Z,29.90
2018-07-26T13:39:04.774Z,29.21
2018-07-26T13:40:04.725Z,29.11
2018-07-26T13:41:04.658Z,29.62
2018-07-26T13:42:04.599Z,28.34
2018-07-26T13:43:04.536Z,27.67
2018-07-26T13:44:04.477Z,28.16
2018-07-26T13:45:04.414Z,28.47
2018-07-26T13:46:04.361Z,29.25
2018-07-26T13:47:04.302Z,28.27
2018-07-26T13:48:04.240Z,28.45
2018-07-26T13:49:04.183Z,28.95
2018-07-26T13:50:04.125Z,29.44
2018-07-26T13:51:04.060Z,28.56
2018-07-26T13:52:04.003Z,27.78
2018-07-26T13:53:03.951Z,27.99
2018-07-26T13:54:03.885Z,27.40
2018-07-26T13:55:03.831Z,27.40
2018-07-26T13:56:03.765Z,27.79
2018-07-26T13:57:03.706Z,28.28
2018-07-26T13:58:03.646Z,29.38
2018-07-26T13:59:03.588Z,28.69
2018-07-26T14:00:03.528Z,28.21
2018-07-26T14:01:03.474Z,27.23
2018-07-26T14:02:03.415Z,26.15
2018-07-26T14:03:03.355Z,25.96
2018-07-26T14:04:03.320Z,26.07
2018-07-26T14:05:03.237Z,25.57
2018-07-26T14:06:03.182Z,24.81
2018-07-26T14:07:03.125Z,24.71
2018-07-26T14:08:03.066Z,24.60
2018-07-26T14:09:03.007Z,24.54
2018-07-26T14:10:02.950Z,23.10
2018-07-26T14:11:02.895Z,23.13
2018-07-26T14:12:02.841Z,21.36
2018-07-26T14:13:02.781Z,20.30
2018-07-26T14:14:02.720Z,19.81
2018-07-26T14:15:02.666Z,19.23
2018-07-26T14:16:02.684Z,19.25
2018-07-26T14:17:02.550Z,18.95
2018-07-26T14:18:02.545Z,18.82
2018-07-26T14:19:02.441Z,18.82
2018-07-26T14:20:02.386Z,19.33
2018-07-26T14:21:02.332Z,19.22
2018-07-26T14:22:02.276Z,18.32
2018-07-26T14:23:02.224Z,18.02
2018-07-26T14:24:02.172Z,18.82
2018-07-26T14:25:02.115Z,18.62
2018-07-26T14:26:02.066Z,18.71
2018-07-26T14:27:02.016Z,17.94
2018-07-26T14:28:01.958Z,18.04
2018-07-26T14:29:01.911Z,17.81
2018-07-26T14:30:01.851Z,18.50
2018-07-26T14:31:01.803Z,17.30
2018-07-26T14:32:01.753Z,17.50
2018-07-26T14:33:01.700Z,18.00
2018-07-26T14:34:01.649Z,18.20
2018-07-26T14:35:01.604Z,18.13
2018-07-26T14:36:01.553Z,17.42
2018-07-26T14:37:01.511Z,17.63
2018-07-26T14:38:01.472Z,17.23
2018-07-26T14:39:01.396Z,17.43
2018-07-26T14:40:01.372Z,17.35
2018-07-26T14:41:01.301Z,16.05
2018-07-26T14:42:01.248Z,16.25
2018-07-26T14:43:01.198Z,16.66
2018-07-26T14:44:01.150Z,15.86
2018-07-26T14:45:01.127Z,17.22